sensor_id;sensor_type;location;lat;lon;timestamp;pressure;altitude;pressure_sealevel;temperature
34310;BMP280;61664;48.112;11.662;2022-12-24T00:01:05;94918.09;;;13.12
34310;BMP280;61664;48.112;11.662;2022-12-24T00:03:33;94921.75;;;13.09
34310;BMP280;61664;48.112;11.662;2022-12-24T00:06:08;94922.72;;;13.06
34310;BMP280;61664;48.112;11.662;2022-12-24T00:08:36;94918.06;;;12.95
34310;BMP280;61664;48.112;11.662;2022-12-24T00:11:03;94928.06;;;12.95
34310;BMP280;61664;48.112;11.662;2022-12-24T00:13:29;94908.75;;;12.85
34310;BMP280;61664;48.112;11.662;2022-12-24T00:15:56;94935.09;;;12.98
34310;BMP280;61664;48.112;11.662;2022-12-24T00:18:23;94945.84;;;12.98
34310;BMP280;61664;48.112;11.662;2022-12-24T00:20:50;94941.69;;;12.97
34310;BMP280;61664;48.112;11.662;2022-12-24T00:23:18;94944.38;;;12.97
34310;BMP280;61664;48.112;11.662;2022-12-24T00:25:45;94938.25;;;12.90
34310;BMP280;61664;48.112;11.662;2022-12-24T00:28:13;94940.72;;;12.94
34310;BMP280;61664;48.112;11.662;2022-12-24T00:30:42;94928.53;;;12.93
34310;BMP280;61664;48.112;11.662;2022-12-24T00:33:09;94947.06;;;12.97
34310;BMP280;61664;48.112;11.662;2022-12-24T00:35:38;94949.78;;;13.02
34310;BMP280;61664;48.112;11.662;2022-12-24T00:38:06;94942.41;;;12.97
34310;BMP280;61664;48.112;11.662;2022-12-24T00:40:33;94951.00;;;13.01
34310;BMP280;61664;48.112;11.662;2022-12-24T00:43:00;94943.16;;;12.98
34310;BMP280;61664;48.112;11.662;2022-12-24T00:45:27;94956.09;;;12.99
34310;BMP280;61664;48.112;11.662;2022-12-24T00:47:54;94973.44;;;13.09
34310;BMP280;61664;48.112;11.662;2022-12-24T00:50:21;94951.72;;;13.02
34310;BMP280;61664;48.112;11.662;2022-12-24T00:55:15;94978.06;;;13.09
34310;BMP280;61664;48.112;11.662;2022-12-24T00:57:42;94972.69;;;13.09
34310;BMP280;61664;48.112;11.662;2022-12-24T01:00:09;94975.63;;;13.11
34310;BMP280;61664;48.112;11.662;2022-12-24T01:02:36;94989.28;;;13.18
34310;BMP280;61664;48.112;11.662;2022-12-24T01:05:04;94986.38;;;13.16
34310;BMP280;61664;48.112;11.662;2022-12-24T01:07:42;94990.31;;;13.26
34310;BMP280;61664;48.112;11.662;2022-12-24T01:10:13;94999.09;;;13.27
34310;BMP280;61664;48.112;11.662;2022-12-24T01:12:41;95008.34;;;13.26
34310;BMP280;61664;48.112;11.662;2022-12-24T01:15:09;95015.69;;;13.31
34310;BMP280;61664;48.112;11.662;2022-12-24T01:17:37;95010.78;;;13.24
34310;BMP280;61664;48.112;11.662;2022-12-24T01:20:07;95001.03;;;13.26
34310;BMP280;61664;48.112;11.662;2022-12-24T01:22:35;95007.63;;;13.25
34310;BMP280;61664;48.112;11.662;2022-12-24T01:25:02;95002.97;;;13.26
34310;BMP280;61664;48.112;11.662;2022-12-24T01:27:29;94993.00;;;13.21
34310;BMP280;61664;48.112;11.662;2022-12-24T01:29:56;95003.94;;;13.23
34310;BMP280;61664;48.112;11.662;2022-12-24T01:32:23;95021.03;;;13.25
34310;BMP280;61664;48.112;11.662;2022-12-24T01:34:50;95010.25;;;13.09
34310;BMP280;61664;48.112;11.662;2022-12-24T01:37:17;95032.47;;;13.20
34310;BMP280;61664;48.112;11.662;2022-12-24T01:39:43;95032.69;;;13.17
34310;BMP280;61664;48.112;11.662;2022-12-24T01:42:22;95039.53;;;13.18
34310;BMP280;61664;48.112;11.662;2022-12-24T01:48:04;95056.13;;;13.16
34310;BMP280;61664;48.112;11.662;2022-12-24T01:50:33;95060.03;;;13.15
34310;BMP280;61664;48.112;11.662;2022-12-24T01:53:02;95057.56;;;13.12
34310;BMP280;61664;48.112;11.662;2022-12-24T01:55:30;95057.78;;;13.08
34310;BMP280;61664;48.112;11.662;2022-12-24T01:57:59;95057.06;;;13.08
34310;BMP280;61664;48.112;11.662;2022-12-24T02:00:28;95067.03;;;13.07
34310;BMP280;61664;48.112;11.662;2022-12-24T02:02:55;95072.91;;;13.11
34310;BMP280;61664;48.112;11.662;2022-12-24T02:05:47;95071.69;;;13.07
34310;BMP280;61664;48.112;11.662;2022-12-24T02:08:15;95056.75;;;13.00
34310;BMP280;61664;48.112;11.662;2022-12-24T02:10:43;95068.50;;;13.08
34310;BMP280;61664;48.112;11.662;2022-12-24T02:13:12;95080.94;;;13.06
34310;BMP280;61664;48.112;11.662;2022-12-24T02:16:07;95078.00;;;13.04
34310;BMP280;61664;48.112;11.662;2022-12-24T02:19:08;95061.56;;;12.90
34310;BMP280;61664;48.112;11.662;2022-12-24T02:22:04;95087.47;;;12.99
34310;BMP280;61664;48.112;11.662;2022-12-24T02:30:44;95079.16;;;12.91
34310;BMP280;61664;48.112;11.662;2022-12-24T02:33:28;95079.41;;;12.94
34310;BMP280;61664;48.112;11.662;2022-12-24T02:36:12;95087.47;;;12.99
34310;BMP280;61664;48.112;11.662;2022-12-24T02:39:07;95089.41;;;12.99
34310;BMP280;61664;48.112;11.662;2022-12-24T02:41:42;95091.34;;;12.93
34310;BMP280;61664;48.112;11.662;2022-12-24T02:44:36;95087.91;;;12.86
34310;BMP280;61664;48.112;11.662;2022-12-24T02:47:06;95106.72;;;12.92
34310;BMP280;61664;48.112;11.662;2022-12-24T02:49:36;95115.97;;;12.97
34310;BMP280;61664;48.112;11.662;2022-12-24T02:52:04;95116.72;;;12.97
34310;BMP280;61664;48.112;11.662;2022-12-24T02:54:31;95098.16;;;12.88
34310;BMP280;61664;48.112;11.662;2022-12-24T02:57:23;95116.22;;;12.93
34310;BMP280;61664;48.112;11.662;2022-12-24T03:00:07;95118.66;;;12.91
34310;BMP280;61664;48.112;11.662;2022-12-24T03:06:16;95099.59;;;12.83
34310;BMP280;61664;48.112;11.662;2022-12-24T03:08:57;95114.03;;;12.91
34310;BMP280;61664;48.112;11.662;2022-12-24T03:11:25;95103.06;;;12.95
34310;BMP280;61664;48.112;11.662;2022-12-24T03:16:27;95113.06;;;12.95
34310;BMP280;61664;48.112;11.662;2022-12-24T03:18:57;95113.84;;;13.01
34310;BMP280;61664;48.112;11.662;2022-12-24T03:21:34;95116.53;;;13.01
34310;BMP280;61664;48.112;11.662;2022-12-24T03:24:03;95117.25;;;13.01
34310;BMP280;61664;48.112;11.662;2022-12-24T03:26:31;95118.47;;;13.06
34310;BMP280;61664;48.112;11.662;2022-12-24T03:28:59;95110.69;;;13.08
34310;BMP280;61664;48.112;11.662;2022-12-24T03:31:40;95110.13;;;12.98
34310;BMP280;61664;48.112;11.662;2022-12-24T03:34:07;95103.38;;;13.03
34310;BMP280;61664;48.112;11.662;2022-12-24T03:36:34;95115.09;;;13.11
34310;BMP280;61664;48.112;11.662;2022-12-24T03:39:01;95127.28;;;13.12
34310;BMP280;61664;48.112;11.662;2022-12-24T03:41:27;95141.91;;;13.11
34310;BMP280;61664;48.112;11.662;2022-12-24T03:43:55;95145.59;;;13.13
34310;BMP280;61664;48.112;11.662;2022-12-24T03:46:22;95150.72;;;13.17
34310;BMP280;61664;48.112;11.662;2022-12-24T03:48:49;95143.13;;;13.10
34310;BMP280;61664;48.112;11.662;2022-12-24T03:51:22;95152.91;;;13.18
34310;BMP280;61664;48.112;11.662;2022-12-24T03:53:52;95150.22;;;13.13
34310;BMP280;61664;48.112;11.662;2022-12-24T03:56:19;95127.56;;;13.14
34310;BMP280;61664;48.112;11.662;2022-12-24T03:58:46;95136.63;;;13.22
34310;BMP280;61664;48.112;11.662;2022-12-24T04:01:15;95119.50;;;13.14
34310;BMP280;61664;48.112;11.662;2022-12-24T04:03:43;95145.59;;;13.19
34310;BMP280;61664;48.112;11.662;2022-12-24T04:06:13;95146.34;;;13.19
34310;BMP280;61664;48.112;11.662;2022-12-24T04:08:41;95156.63;;;13.26
34310;BMP280;61664;48.112;11.662;2022-12-24T04:11:15;95158.09;;;13.22
34310;BMP280;61664;48.112;11.662;2022-12-24T04:13:42;95150.78;;;13.22
34310;BMP280;61664;48.112;11.662;2022-12-24T04:16:13;95159.53;;;13.23
34310;BMP280;61664;48.112;11.662;2022-12-24T04:18:41;95166.63;;;13.26
34310;BMP280;61664;48.112;11.662;2022-12-24T04:21:09;95185.91;;;13.30
34310;BMP280;61664;48.112;11.662;2022-12-24T04:23:39;95193.22;;;13.30
34310;BMP280;61664;48.112;11.662;2022-12-24T04:26:09;95186.88;;;13.27
34310;BMP280;61664;48.112;11.662;2022-12-24T04:28:38;95191.03;;;13.28
34310;BMP280;61664;48.112;11.662;2022-12-24T04:31:14;95179.31;;;13.25
34310;BMP280;61664;48.112;11.662;2022-12-24T04:33:41;95190.03;;;13.25
34310;BMP280;61664;48.112;11.662;2022-12-24T04:36:14;95198.09;;;13.25
34310;BMP280;61664;48.112;11.662;2022-12-24T04:38:43;95205.81;;;13.18
34310;BMP280;61664;48.112;11.662;2022-12-24T04:41:22;95195.66;;;13.22
34310;BMP280;61664;48.112;11.662;2022-12-24T04:43:53;95201.50;;;13.26
34310;BMP280;61664;48.112;11.662;2022-12-24T04:46:26;95195.19;;;13.29
34310;BMP280;61664;48.112;11.662;2022-12-24T04:48:56;95202.00;;;13.30
34310;BMP280;61664;48.112;11.662;2022-12-24T04:51:25;95194.44;;;13.29
34310;BMP280;61664;48.112;11.662;2022-12-24T04:53:53;95208.09;;;13.31
34310;BMP280;61664;48.112;11.662;2022-12-24T04:56:27;95223.00;;;13.32
34310;BMP280;61664;48.112;11.662;2022-12-24T04:58:54;95208.34;;;13.27
34310;BMP280;61664;48.112;11.662;2022-12-24T05:01:29;95221.06;;;13.32
34310;BMP280;61664;48.112;11.662;2022-12-24T05:03:57;95231.78;;;13.32
34310;BMP280;61664;48.112;11.662;2022-12-24T05:06:29;95221.78;;;13.33
34310;BMP280;61664;48.112;11.662;2022-12-24T05:08:57;95227.91;;;13.33
34310;BMP280;61664;48.112;11.662;2022-12-24T05:11:25;95226.44;;;13.32
34310;BMP280;61664;48.112;11.662;2022-12-24T05:13:52;95232.06;;;13.34
34310;BMP280;61664;48.112;11.662;2022-12-24T05:16:21;95225.94;;;13.34
34310;BMP280;61664;48.112;11.662;2022-12-24T05:18:49;95224.00;;;13.34
34310;BMP280;61664;48.112;11.662;2022-12-24T05:21:20;95219.84;;;13.39
34310;BMP280;61664;48.112;11.662;2022-12-24T05:23:47;95230.59;;;13.39
34310;BMP280;61664;48.112;11.662;2022-12-24T05:26:50;95235.97;;;13.39
34310;BMP280;61664;48.112;11.662;2022-12-24T05:29:19;95225.69;;;13.37
34310;BMP280;61664;48.112;11.662;2022-12-24T05:31:46;95243.53;;;13.40
34310;BMP280;61664;48.112;11.662;2022-12-24T05:34:15;95230.13;;;13.40
34310;BMP280;61664;48.112;11.662;2022-12-24T05:36:43;95226.69;;;13.40
34310;BMP280;61664;48.112;11.662;2022-12-24T05:39:16;95209.06;;;13.27
34310;BMP280;61664;48.112;11.662;2022-12-24T05:41:44;95214.97;;;13.32
34310;BMP280;61664;48.112;11.662;2022-12-24T05:44:12;95236.69;;;13.39
34310;BMP280;61664;48.112;11.662;2022-12-24T05:46:40;95241.06;;;13.31
34310;BMP280;61664;48.112;11.662;2022-12-24T05:49:07;95242.25;;;13.30
34310;BMP280;61664;48.112;11.662;2022-12-24T05:51:34;95259.84;;;13.37
34310;BMP280;61664;48.112;11.662;2022-12-24T05:54:01;95257.66;;;13.35
34310;BMP280;61664;48.112;11.662;2022-12-24T05:56:28;95266.47;;;13.36
34310;BMP280;61664;48.112;11.662;2022-12-24T05:58:55;95258.41;;;13.36
34310;BMP280;61664;48.112;11.662;2022-12-24T06:01:24;95261.31;;;13.32
34310;BMP280;61664;48.112;11.662;2022-12-24T06:03:52;95253.69;;;13.31
34310;BMP280;61664;48.112;11.662;2022-12-24T06:06:23;95256.19;;;13.34
34310;BMP280;61664;48.112;11.662;2022-12-24T06:08:52;95265.22;;;13.37
34310;BMP280;61664;48.112;11.662;2022-12-24T06:11:23;95275.22;;;13.36
34310;BMP280;61664;48.112;11.662;2022-12-24T06:13:52;95283.53;;;13.38
34310;BMP280;61664;48.112;11.662;2022-12-24T06:16:20;95287.47;;;13.43
34310;BMP280;61664;48.112;11.662;2022-12-24T06:18:47;95293.56;;;13.43
34310;BMP280;61664;48.112;11.662;2022-12-24T06:21:16;95294.56;;;13.46
34310;BMP280;61664;48.112;11.662;2022-12-24T06:23:44;95301.44;;;13.52
34310;BMP280;61664;48.112;11.662;2022-12-24T06:26:18;95294.41;;;13.55
34310;BMP280;61664;48.112;11.662;2022-12-24T06:28:48;95289.50;;;13.59
34310;BMP280;61664;48.112;11.662;2022-12-24T06:31:19;95287.56;;;13.59
34310;BMP280;61664;48.112;11.662;2022-12-24T06:33:46;95290.53;;;13.62
34310;BMP280;61664;48.112;11.662;2022-12-24T06:36:19;95284.63;;;13.57
34310;BMP280;61664;48.112;11.662;2022-12-24T06:38:47;95293.44;;;13.64
34310;BMP280;61664;48.112;11.662;2022-12-24T06:41:15;95301.03;;;13.65
34310;BMP280;61664;48.112;11.662;2022-12-24T06:43:45;95313.97;;;13.67
34310;BMP280;61664;48.112;11.662;2022-12-24T06:46:13;95308.34;;;13.65
34310;BMP280;61664;48.112;11.662;2022-12-24T06:48:43;95310.56;;;13.66
34310;BMP280;61664;48.112;11.662;2022-12-24T06:51:13;95310.28;;;13.64
34310;BMP280;61664;48.112;11.662;2022-12-24T06:53:40;95323.25;;;13.66
34310;BMP280;61664;48.112;11.662;2022-12-24T06:56:11;95316.41;;;13.65
34310;BMP280;61664;48.112;11.662;2022-12-24T06:58:39;95322.75;;;13.62
34310;BMP280;61664;48.112;11.662;2022-12-24T07:01:11;95331.50;;;13.62
34310;BMP280;61664;48.112;11.662;2022-12-24T07:03:39;95339.78;;;13.58
34310;BMP280;61664;48.112;11.662;2022-12-24T07:06:13;95329.50;;;13.51
34310;BMP280;61664;48.112;11.662;2022-12-24T07:08:41;95325.31;;;13.50
34310;BMP280;61664;48.112;11.662;2022-12-24T07:11:07;95322.88;;;13.47
34310;BMP280;61664;48.112;11.662;2022-12-24T07:13:34;95319.66;;;13.43
34310;BMP280;61664;48.112;11.662;2022-12-24T07:16:03;95324.25;;;13.37
34310;BMP280;61664;48.112;11.662;2022-12-24T07:18:31;95328.66;;;13.34
34310;BMP280;61664;48.112;11.662;2022-12-24T07:20:58;95340.59;;;13.33
34310;BMP280;61664;48.112;11.662;2022-12-24T07:23:25;95328.00;;;13.19
34310;BMP280;61664;48.112;11.662;2022-12-24T07:25:52;95349.31;;;13.28
34310;BMP280;61664;48.112;11.662;2022-12-24T07:28:19;95330.88;;;13.10
34310;BMP280;61664;48.112;11.662;2022-12-24T07:30:54;95351.19;;;13.16
34310;BMP280;61664;48.112;11.662;2022-12-24T07:33:23;95356.03;;;13.12
34310;BMP280;61664;48.112;11.662;2022-12-24T07:36:02;95364.09;;;13.18
34310;BMP280;61664;48.112;11.662;2022-12-24T07:38:31;95360.91;;;13.14
34310;BMP280;61664;48.112;11.662;2022-12-24T07:40:59;95370.44;;;13.15
34310;BMP280;61664;48.112;11.662;2022-12-24T07:43:26;95377.28;;;13.16
34310;BMP280;61664;48.112;11.662;2022-12-24T07:45:55;95374.06;;;13.12
34310;BMP280;61664;48.112;11.662;2022-12-24T07:48:24;95388.75;;;13.16
34310;BMP280;61664;48.112;11.662;2022-12-24T07:50:52;95394.56;;;13.15
34310;BMP280;61664;48.112;11.662;2022-12-24T07:53:19;95401.66;;;13.18
34310;BMP280;61664;48.112;11.662;2022-12-24T07:55:45;95405.78;;;13.13
34310;BMP280;61664;48.112;11.662;2022-12-24T07:58:12;95409.97;;;13.20
34310;BMP280;61664;48.112;11.662;2022-12-24T08:00:39;95411.66;;;13.17
34310;BMP280;61664;48.112;11.662;2022-12-24T08:03:06;95412.38;;;13.18
34310;BMP280;61664;48.112;11.662;2022-12-24T08:05:35;95409.19;;;13.14
34310;BMP280;61664;48.112;11.662;2022-12-24T08:08:02;95414.56;;;13.14
34310;BMP280;61664;48.112;11.662;2022-12-24T08:10:29;95415.78;;;13.13
34310;BMP280;61664;48.112;11.662;2022-12-24T08:12:56;95412.38;;;13.18
34310;BMP280;61664;48.112;11.662;2022-12-24T08:15:23;95411.16;;;13.13
34310;BMP280;61664;48.112;11.662;2022-12-24T08:17:49;95423.81;;;13.13
34310;BMP280;61664;48.112;11.662;2022-12-24T08:20:16;95436.28;;;13.16
34310;BMP280;61664;48.112;11.662;2022-12-24T08:22:44;95441.16;;;13.17
34310;BMP280;61664;48.112;11.662;2022-12-24T08:25:10;95448.75;;;13.19
34310;BMP280;61664;48.112;11.662;2022-12-24T08:27:37;95431.41;;;13.14
34310;BMP280;61664;48.112;11.662;2022-12-24T08:30:05;95457.09;;;13.21
34310;BMP280;61664;48.112;11.662;2022-12-24T08:32:32;95456.31;;;13.20
34310;BMP280;61664;48.112;11.662;2022-12-24T08:34:59;95445.28;;;13.13
34310;BMP280;61664;48.112;11.662;2022-12-24T08:37:26;95445.78;;;13.17
34310;BMP280;61664;48.112;11.662;2022-12-24T08:39:53;95444.84;;;13.20
34310;BMP280;61664;48.112;11.662;2022-12-24T08:42:20;95436.75;;;13.14
34310;BMP280;61664;48.112;11.662;2022-12-24T08:44:47;95438.97;;;13.16
34310;BMP280;61664;48.112;11.662;2022-12-24T08:47:14;95444.09;;;13.19
34310;BMP280;61664;48.112;11.662;2022-12-24T08:49:40;95465.16;;;13.26
34310;BMP280;61664;48.112;11.662;2022-12-24T08:52:07;95450.94;;;13.20
34310;BMP280;61664;48.112;11.662;2022-12-24T08:54:34;95459.06;;;13.26
34310;BMP280;61664;48.112;11.662;2022-12-24T08:57:02;95472.97;;;13.30
34310;BMP280;61664;48.112;11.662;2022-12-24T08:59:29;95468.34;;;13.31
34310;BMP280;61664;48.112;11.662;2022-12-24T09:01:56;95483.72;;;13.30
34310;BMP280;61664;48.112;11.662;2022-12-24T09:04:23;95469.31;;;13.27
34310;BMP280;61664;48.112;11.662;2022-12-24T09:06:50;95492.81;;;13.33
34310;BMP280;61664;48.112;11.662;2022-12-24T09:09:17;95491.53;;;13.28
34310;BMP280;61664;48.112;11.662;2022-12-24T09:11:43;95505.47;;;13.32
34310;BMP280;61664;48.112;11.662;2022-12-24T09:14:11;95499.41;;;13.37
34310;BMP280;61664;48.112;11.662;2022-12-24T09:16:38;95507.78;;;13.45
34310;BMP280;61664;48.112;11.662;2022-12-24T09:19:05;95507.59;;;13.48
34310;BMP280;61664;48.112;11.662;2022-12-24T09:21:31;95516.19;;;13.52
34310;BMP280;61664;48.112;11.662;2022-12-24T09:23:58;95519.13;;;13.54
34310;BMP280;61664;48.112;11.662;2022-12-24T09:26:27;95514.13;;;13.68
34310;BMP280;61664;48.112;11.662;2022-12-24T09:28:57;95535.28;;;13.86
34310;BMP280;61664;48.112;11.662;2022-12-24T09:31:25;95533.38;;;13.92
34310;BMP280;61664;48.112;11.662;2022-12-24T09:33:52;95528.25;;;13.94
34310;BMP280;61664;48.112;11.662;2022-12-24T09:36:20;95533.63;;;13.94
34310;BMP280;61664;48.112;11.662;2022-12-24T09:38:48;95520.38;;;13.85
34310;BMP280;61664;48.112;11.662;2022-12-24T09:44:48;95517.44;;;13.83
34310;BMP280;61664;48.112;11.662;2022-12-24T09:47:43;95524.69;;;13.77
34310;BMP280;61664;48.112;11.662;2022-12-24T09:50:50;95508.22;;;13.64
34310;BMP280;61664;48.112;11.662;2022-12-24T09:56:03;95498.38;;;13.81
34310;BMP280;61664;48.112;11.662;2022-12-24T09:58:46;95517.28;;;13.92
34310;BMP280;61664;48.112;11.662;2022-12-24T10:01:16;95518.75;;;13.93
34310;BMP280;61664;48.112;11.662;2022-12-24T10:03:45;95520.94;;;13.94
34310;BMP280;61664;48.112;11.662;2022-12-24T10:06:23;95499.13;;;13.87
34310;BMP280;61664;48.112;11.662;2022-12-24T10:09:22;95510.97;;;14.01
34310;BMP280;61664;48.112;11.662;2022-12-24T10:20:53;95515.72;;;14.11
34310;BMP280;61664;48.112;11.662;2022-12-24T10:23:36;95521.63;;;14.21
34310;BMP280;61664;48.112;11.662;2022-12-24T10:28:59;95524.75;;;14.51
34310;BMP280;61664;48.112;11.662;2022-12-24T10:31:40;95512.59;;;14.61
34310;BMP280;61664;48.112;11.662;2022-12-24T10:34:18;95521.94;;;14.71
34310;BMP280;61664;48.112;11.662;2022-12-24T10:36:46;95520.69;;;14.72
34310;BMP280;61664;48.112;11.662;2022-12-24T10:39:22;95527.78;;;14.70
34310;BMP280;61664;48.112;11.662;2022-12-24T10:41:54;95515.53;;;14.68
34310;BMP280;61664;48.112;11.662;2022-12-24T10:44:28;95516.50;;;14.65
34310;BMP280;61664;48.112;11.662;2022-12-24T10:46:55;95501.25;;;14.46
34310;BMP280;61664;48.112;11.662;2022-12-24T10:49:35;95497.53;;;14.38
34310;BMP280;61664;48.112;11.662;2022-12-24T10:52:15;95509.25;;;14.35
34310;BMP280;61664;48.112;11.662;2022-12-24T10:57:39;95518.72;;;14.24
34310;BMP280;61664;48.112;11.662;2022-12-24T11:00:19;95521.63;;;14.21
34310;BMP280;61664;48.112;11.662;2022-12-24T11:02:47;95516.53;;;14.23
34310;BMP280;61664;48.112;11.662;2022-12-24T11:05:34;95519.50;;;14.30
34310;BMP280;61664;48.112;11.662;2022-12-24T11:08:05;95515.66;;;14.48
34310;BMP280;61664;48.112;11.662;2022-12-24T11:13:27;95525.91;;;14.87
34310;BMP280;61664;48.112;11.662;2022-12-24T11:16:18;95514.72;;;15.05
34310;BMP280;61664;48.112;11.662;2022-12-24T11:18:53;95524.56;;;15.25
34310;BMP280;61664;48.112;11.662;2022-12-24T11:21:26;95525.31;;;15.31
34310;BMP280;61664;48.112;11.662;2022-12-24T11:26:34;95527.75;;;15.23
34310;BMP280;61664;48.112;11.662;2022-12-24T11:31:46;95507.16;;;15.15
34310;BMP280;61664;48.112;11.662;2022-12-24T11:34:31;95520.38;;;15.13
34310;BMP280;61664;48.112;11.662;2022-12-24T11:37:18;95523.78;;;15.19
34310;BMP280;61664;48.112;11.662;2022-12-24T11:39:53;95511.84;;;15.25
34310;BMP280;61664;48.112;11.662;2022-12-24T11:45:02;95520.91;;;15.22
34310;BMP280;61664;48.112;11.662;2022-12-24T11:47:38;95511.81;;;15.20
34310;BMP280;61664;48.112;11.662;2022-12-24T11:50:28;95504.69;;;15.06
34310;BMP280;61664;48.112;11.662;2022-12-24T11:53:17;95508.56;;;14.93
34310;BMP280;61664;48.112;11.662;2022-12-24T11:55:55;95526.41;;;14.96
34310;BMP280;61664;48.112;11.662;2022-12-24T11:58:50;95518.13;;;14.94
34310;BMP280;61664;48.112;11.662;2022-12-24T12:01:30;95512.00;;;14.94
34310;BMP280;61664;48.112;11.662;2022-12-24T12:04:04;95512.19;;;14.90
34310;BMP280;61664;48.112;11.662;2022-12-24T12:06:47;95511.00;;;14.91
34310;BMP280;61664;48.112;11.662;2022-12-24T12:09:29;95510.25;;;14.85
34310;BMP280;61664;48.112;11.662;2022-12-24T12:12:13;95513.38;;;14.78
34310;BMP280;61664;48.112;11.662;2022-12-24T12:14:57;95518.53;;;14.76
34310;BMP280;61664;48.112;11.662;2022-12-24T12:20:34;95514.38;;;14.75
34310;BMP280;61664;48.112;11.662;2022-12-24T12:23:10;95515.59;;;14.74
34310;BMP280;61664;48.112;11.662;2022-12-24T12:25:58;95514.84;;;14.79
34310;BMP280;61664;48.112;11.662;2022-12-24T12:31:24;95505.06;;;14.76
34310;BMP280;61664;48.112;11.662;2022-12-24T12:34:08;95516.06;;;14.78
34310;BMP280;61664;48.112;11.662;2022-12-24T12:37:07;95521.44;;;14.73
34310;BMP280;61664;48.112;11.662;2022-12-24T12:39:41;95514.31;;;14.64
34310;BMP280;61664;48.112;11.662;2022-12-24T12:56:29;95531.03;;;14.42
34310;BMP280;61664;48.112;11.662;2022-12-24T12:59:07;95542.00;;;14.39
34310;BMP280;61664;48.112;11.662;2022-12-24T13:01:45;95549.34;;;14.38
34310;BMP280;61664;48.112;11.662;2022-12-24T13:19:31;95542.31;;;14.41
34310;BMP280;61664;48.112;11.662;2022-12-24T13:22:13;95535.41;;;14.34
34310;BMP280;61664;48.112;11.662;2022-12-24T13:24:49;95541.78;;;14.42
34310;BMP280;61664;48.112;11.662;2022-12-24T13:27:31;95541.09;;;14.42
34310;BMP280;61664;48.112;11.662;2022-12-24T13:32:58;95547.91;;;14.43
34310;BMP280;61664;48.112;11.662;2022-12-24T13:35:28;95557.44;;;14.44
34310;BMP280;61664;48.112;11.662;2022-12-24T13:38:31;95553.97;;;14.32
34310;BMP280;61664;48.112;11.662;2022-12-24T13:47:17;95568.91;;;14.07
34310;BMP280;61664;48.112;11.662;2022-12-24T13:49:54;95563.50;;;14.02
34310;BMP280;61664;48.112;11.662;2022-12-24T13:52:26;95569.06;;;13.98
34310;BMP280;61664;48.112;11.662;2022-12-24T13:57:31;95573.06;;;14.08
34310;BMP280;61664;48.112;11.662;2022-12-24T14:21:57;95593.50;;;14.00
34310;BMP280;61664;48.112;11.662;2022-12-24T14:24:34;95584.91;;;13.96
34310;BMP280;61664;48.112;11.662;2022-12-24T14:30:04;95587.72;;;13.81
34310;BMP280;61664;48.112;11.662;2022-12-24T14:32:37;95592.97;;;13.70
34310;BMP280;61664;48.112;11.662;2022-12-24T14:35:21;95592.22;;;13.70
34310;BMP280;61664;48.112;11.662;2022-12-24T14:38:03;95592.66;;;13.63
34310;BMP280;61664;48.112;11.662;2022-12-24T14:40:42;95599.66;;;13.54
34310;BMP280;61664;48.112;11.662;2022-12-24T14:46:39;95616.41;;;13.49
34310;BMP280;61664;48.112;11.662;2022-12-24T14:50:33;95618.06;;;13.41
34310;BMP280;61664;48.112;11.662;2022-12-24T14:53:05;95608.13;;;13.27
34310;BMP280;61664;48.112;11.662;2022-12-24T14:55:47;95605.38;;;13.21
34310;BMP280;61664;48.112;11.662;2022-12-24T14:58:31;95615.63;;;13.23
34310;BMP280;61664;48.112;11.662;2022-12-24T15:01:16;95618.97;;;13.18
34310;BMP280;61664;48.112;11.662;2022-12-24T15:03:44;95612.25;;;13.08
34310;BMP280;61664;48.112;11.662;2022-12-24T15:06:13;95609.75;;;13.04
34310;BMP280;61664;48.112;11.662;2022-12-24T15:08:47;95624.19;;;13.07
34310;BMP280;61664;48.112;11.662;2022-12-24T15:11:20;95628.28;;;13.02
34310;BMP280;61664;48.112;11.662;2022-12-24T15:13:55;95626.00;;;12.95
34310;BMP280;61664;48.112;11.662;2022-12-24T15:16:30;95614.91;;;12.87
34310;BMP280;61664;48.112;11.662;2022-12-24T15:19:04;95624.44;;;12.88
34310;BMP280;61664;48.112;11.662;2022-12-24T15:21:38;95620.28;;;12.87
34310;BMP280;61664;48.112;11.662;2022-12-24T15:24:34;95606.22;;;12.78
34310;BMP280;61664;48.112;11.662;2022-12-24T15:27:14;95606.72;;;12.76
34310;BMP280;61664;48.112;11.662;2022-12-24T15:29:44;95612.41;;;12.84
34310;BMP280;61664;48.112;11.662;2022-12-24T15:32:18;95610.69;;;12.81
34310;BMP280;61664;48.112;11.662;2022-12-24T15:34:53;95603.75;;;12.74
34310;BMP280;61664;48.112;11.662;2022-12-24T15:37:30;95615.47;;;12.77
34310;BMP280;61664;48.112;11.662;2022-12-24T15:42:33;95598.59;;;12.71
34310;BMP280;61664;48.112;11.662;2022-12-24T15:45:17;95602.44;;;12.70
34310;BMP280;61664;48.112;11.662;2022-12-24T15:48:00;95609.41;;;12.76
34310;BMP280;61664;48.112;11.662;2022-12-24T15:50:35;95625.28;;;12.80
34310;BMP280;61664;48.112;11.662;2022-12-24T15:53:12;95617.16;;;12.74
34310;BMP280;61664;48.112;11.662;2022-12-24T15:58:41;95634.44;;;12.73
34310;BMP280;61664;48.112;11.662;2022-12-24T16:06:17;95639.66;;;12.62
34310;BMP280;61664;48.112;11.662;2022-12-24T16:08:45;95634.00;;;12.60
34310;BMP280;61664;48.112;11.662;2022-12-24T16:11:32;95632.91;;;12.52
34310;BMP280;61664;48.112;11.662;2022-12-24T16:14:10;95639.28;;;12.54
34310;BMP280;61664;48.112;11.662;2022-12-24T16:16:46;95636.78;;;12.51
34310;BMP280;61664;48.112;11.662;2022-12-24T16:19:24;95629.66;;;12.48
34310;BMP280;61664;48.112;11.662;2022-12-24T16:21:54;95621.06;;;12.44
34310;BMP280;61664;48.112;11.662;2022-12-24T16:24:28;95616.09;;;12.37
34310;BMP280;61664;48.112;11.662;2022-12-24T16:26:56;95630.22;;;12.37
34310;BMP280;61664;48.112;11.662;2022-12-24T16:29:23;95628.94;;;12.33
34310;BMP280;61664;48.112;11.662;2022-12-24T16:31:57;95643.34;;;12.35
34310;BMP280;61664;48.112;11.662;2022-12-24T16:34:30;95639.34;;;12.31
34310;BMP280;61664;48.112;11.662;2022-12-24T16:36:59;95643.81;;;12.34
34310;BMP280;61664;48.112;11.662;2022-12-24T16:39:32;95646.75;;;12.36
34310;BMP280;61664;48.112;11.662;2022-12-24T16:42:02;95647.03;;;12.38